createdAt,value
2019-02-05T00:01:27.471Z,100.00
2019-02-05T00:04:35.694Z,100.00
2019-02-05T00:07:43.815Z,100.00
2019-02-05T00:10:51.491Z,100.00
2019-02-05T00:13:59.102Z,100.00
2019-02-05T00:17:06.894Z,100.00
2019-02-05T00:20:14.608Z,100.00
2019-02-05T00:23:22.485Z,100.00
2019-02-05T00:26:30.780Z,100.00
2019-02-05T00:29:38.495Z,100.00
2019-02-05T00:33:04.535Z,100.00
2019-02-05T00:36:17.910Z,100.00
2019-02-05T00:39:25.611Z,100.00
2019-02-05T00:42:33.849Z,100.00
2019-02-05T00:45:41.433Z,100.00
2019-02-05T00:48:52.404Z,100.00
2019-02-05T00:52:00.026Z,100.00
2019-02-05T00:55:20.070Z,100.00
2019-02-05T00:58:29.772Z,100.00
2019-02-05T01:01:40.544Z,100.00
2019-02-05T01:04:50.678Z,100.00
2019-02-05T01:08:01.941Z,100.00
2019-02-05T01:11:09.445Z,100.00
2019-02-05T01:14:17.315Z,100.00
2019-02-05T01:17:24.859Z,100.00
2019-02-05T01:20:34.947Z,100.00
2019-02-05T01:23:42.616Z,100.00
2019-02-05T01:26:50.476Z,100.00
2019-02-05T01:29:58.287Z,100.00
2019-02-05T01:33:06.423Z,100.00
2019-02-05T01:36:14.378Z,100.00
2019-02-05T01:39:22.577Z,100.00
2019-02-05T01:45:45.320Z,100.00
2019-02-05T01:48:52.607Z,100.00
2019-02-05T01:52:00.082Z,100.00
2019-02-05T01:55:09.400Z,100.00
2019-02-05T01:58:17.085Z,100.00
2019-02-05T02:01:24.568Z,100.00
2019-02-05T02:04:32.090Z,100.00
2019-02-05T02:07:40.424Z,100.00
2019-02-05T02:10:48.065Z,100.00
2019-02-05T04:24:02.637Z,100.00
2019-02-05T04:27:47.387Z,100.00
2019-02-05T04:32:07.726Z,100.00
2019-02-05T04:36:15.731Z,100.00
2019-02-05T04:40:31.146Z,100.00
2019-02-05T04:44:24.931Z,100.00
2019-02-05T04:48:30.384Z,100.00
2019-02-05T04:52:57.640Z,100.00
2019-02-05T04:57:21.846Z,100.00
2019-02-05T05:01:17.071Z,100.00
2019-02-05T05:04:59.346Z,100.00
2019-02-05T05:08:42.260Z,100.00
2019-02-05T05:11:49.798Z,100.00
2019-02-05T05:14:57.859Z,100.00
2019-02-05T05:18:05.586Z,100.00
2019-02-05T05:21:13.092Z,100.00
2019-02-05T05:24:20.581Z,100.00
2019-02-05T05:27:28.695Z,100.00
2019-02-05T05:30:37.085Z,100.00
2019-02-05T05:33:45.213Z,100.00
2019-02-05T05:36:51.314Z,100.00
2019-02-05T05:39:58.633Z,100.00
2019-02-05T05:43:06.411Z,100.00
2019-02-05T05:46:13.811Z,100.00
2019-02-05T05:49:21.481Z,100.00
2019-02-05T05:52:28.958Z,100.00
2019-02-05T05:55:36.378Z,100.00
2019-02-05T05:58:44.351Z,100.00
2019-02-05T06:01:51.943Z,99.22
2019-02-05T06:04:59.798Z,99.25
2019-02-05T06:08:07.720Z,98.94
2019-02-05T06:11:15.332Z,99.27
2019-02-05T06:14:22.665Z,98.78
2019-02-05T06:17:29.936Z,98.33
2019-02-05T06:20:37.657Z,98.47
2019-02-05T06:23:45.480Z,98.29
2019-02-05T06:26:52.943Z,97.94
2019-02-05T06:30:00.374Z,97.71
2019-02-05T06:33:07.929Z,97.61
2019-02-05T06:36:15.617Z,97.42
2019-02-05T06:39:23.149Z,96.88
2019-02-05T06:42:30.617Z,97.03
2019-02-05T06:45:41.377Z,96.65
2019-02-05T06:48:47.629Z,96.58
2019-02-05T06:51:55.088Z,96.96
2019-02-05T06:55:03.208Z,96.46
2019-02-05T06:58:11.029Z,96.36
2019-02-05T07:01:18.719Z,96.42
2019-02-05T07:04:25.994Z,96.39
2019-02-05T07:07:33.399Z,95.85
2019-02-05T07:10:41.189Z,95.52
2019-02-05T07:13:49.055Z,95.36
2019-02-05T07:16:57.207Z,95.63
2019-02-05T07:20:05.556Z,95.27
2019-02-05T07:23:13.293Z,95.42
2019-02-05T07:26:21.024Z,95.71
2019-02-05T07:29:28.743Z,96.03
2019-02-05T07:32:36.221Z,96.27
2019-02-05T07:35:43.598Z,95.82
2019-02-05T07:38:50.913Z,94.44
2019-02-05T07:41:58.308Z,95.16
2019-02-05T07:45:09.058Z,95.70
2019-02-05T07:48:16.691Z,96.35
2019-02-05T07:51:24.353Z,95.55
2019-02-05T07:54:31.525Z,94.85
2019-02-05T07:57:38.797Z,94.28
2019-02-05T08:00:46.361Z,93.46
2019-02-05T08:03:53.851Z,91.37
2019-02-05T08:07:01.355Z,88.27
2019-02-05T08:10:11.086Z,87.68
2019-02-05T08:13:18.695Z,88.15
2019-02-05T08:16:26.468Z,87.79
2019-02-05T08:19:33.849Z,86.94
2019-02-05T08:22:41.495Z,85.86
2019-02-05T08:25:49.066Z,83.52
2019-02-05T08:28:56.556Z,82.58
2019-02-05T08:32:04.469Z,86.03
2019-02-05T08:35:13.713Z,87.79
2019-02-05T08:38:21.607Z,88.08
2019-02-05T08:41:29.321Z,88.62
2019-02-05T08:44:36.956Z,88.50
2019-02-05T08:47:44.858Z,86.63
2019-02-05T08:50:52.392Z,86.65
2019-02-05T08:53:59.770Z,84.71
2019-02-05T08:57:07.611Z,84.54
2019-02-05T09:00:24.551Z,83.81
2019-02-05T09:03:31.913Z,82.80
2019-02-05T09:06:39.617Z,80.11
2019-02-05T09:09:47.158Z,79.54
2019-02-05T09:12:54.652Z,81.07
2019-02-05T09:16:02.526Z,82.24
2019-02-05T09:19:10.026Z,83.15
2019-02-05T09:22:17.335Z,83.89
2019-02-05T09:25:25.137Z,84.01
2019-02-05T09:28:32.918Z,86.10
2019-02-05T09:31:40.698Z,87.35
2019-02-05T09:34:48.433Z,87.81
2019-02-05T09:37:57.799Z,88.75
2019-02-05T09:41:05.186Z,88.14
2019-02-05T09:44:12.668Z,87.46
2019-02-05T09:47:20.190Z,88.21
2019-02-05T09:50:30.807Z,88.56
2019-02-05T09:53:37.587Z,87.00
2019-02-05T09:56:45.499Z,84.66
2019-02-05T09:59:53.330Z,83.12
2019-02-05T10:03:01.101Z,82.68
2019-02-05T10:06:08.999Z,81.47
2019-02-05T10:09:16.321Z,82.01
2019-02-05T10:12:23.710Z,82.27
2019-02-05T10:15:33.873Z,80.79
2019-02-05T10:18:41.878Z,80.11
2019-02-05T10:21:49.261Z,80.26
2019-02-05T10:24:56.790Z,78.15
2019-02-05T10:28:04.660Z,78.41
2019-02-05T10:31:12.208Z,79.50
2019-02-05T10:34:19.953Z,80.56
2019-02-05T10:37:27.594Z,81.20
2019-02-05T10:40:35.471Z,82.64
2019-02-05T10:43:43.792Z,82.72
2019-02-05T10:46:51.029Z,81.92
2019-02-05T10:49:58.554Z,82.24
2019-02-05T10:53:06.377Z,80.93
2019-02-05T10:56:13.793Z,79.05
2019-02-05T10:59:21.189Z,78.01
2019-02-05T11:02:28.593Z,79.03
2019-02-05T11:05:36.968Z,76.56
2019-02-05T11:08:44.502Z,78.15
2019-02-05T11:11:52.300Z,80.56
2019-02-05T11:14:59.761Z,82.17
2019-02-05T11:18:09.094Z,80.58
2019-02-05T11:21:16.497Z,80.34
2019-02-05T11:24:24.203Z,79.81
2019-02-05T11:27:31.590Z,78.68
2019-02-05T11:30:43.029Z,76.96
2019-02-05T11:33:51.070Z,78.63
2019-02-05T11:36:59.113Z,81.24
2019-02-05T11:40:09.859Z,80.48
2019-02-05T11:43:17.626Z,80.25
2019-02-05T11:46:25.181Z,80.61
2019-02-05T11:49:32.588Z,81.68
2019-02-05T11:52:40.291Z,82.29
2019-02-05T11:55:48.532Z,80.95
2019-02-05T11:58:56.394Z,81.32
2019-02-05T12:02:04.593Z,81.34
2019-02-05T12:05:12.783Z,82.28
2019-02-05T12:08:20.394Z,82.86
2019-02-05T12:11:28.126Z,83.26
2019-02-05T12:14:35.587Z,83.34
2019-02-05T12:17:43.177Z,83.69
2019-02-05T12:20:50.632Z,83.93
2019-02-05T12:23:58.151Z,84.95
2019-02-05T12:27:05.728Z,84.32
2019-02-05T12:30:26.075Z,83.89
2019-02-05T12:33:33.509Z,81.48
2019-02-05T12:36:41.389Z,81.41
2019-02-05T12:39:49.184Z,80.49
2019-02-05T12:42:56.919Z,80.50
2019-02-05T12:46:04.370Z,79.99
2019-02-05T12:49:14.735Z,81.36
2019-02-05T12:52:21.277Z,82.03
2019-02-05T12:55:29.013Z,89.91
2019-02-05T12:58:36.543Z,92.86
2019-02-05T13:01:44.022Z,92.33
2019-02-05T13:04:51.414Z,87.05
2019-02-05T13:07:59.199Z,86.76
2019-02-05T13:11:06.576Z,86.15
2019-02-05T13:14:14.065Z,85.75
2019-02-05T13:17:21.794Z,84.42
2019-02-05T13:20:29.863Z,84.36
2019-02-05T13:23:37.633Z,85.55
2019-02-05T13:26:45.103Z,85.75
2019-02-05T13:29:52.705Z,85.44
2019-02-05T13:33:00.628Z,85.79
2019-02-05T13:36:10.230Z,84.68
2019-02-05T13:39:17.778Z,84.28
2019-02-05T13:42:25.305Z,83.17
2019-02-05T13:45:34.169Z,82.74
2019-02-05T13:48:41.633Z,84.14
2019-02-05T13:51:49.244Z,86.11
2019-02-05T13:54:56.898Z,87.71
2019-02-05T13:58:05.246Z,89.94
2019-02-05T14:01:19.990Z,90.57
2019-02-05T14:04:22.947Z,92.15
2019-02-05T14:07:31.645Z,92.38
2019-02-05T14:10:40.838Z,92.40
2019-02-05T14:13:48.508Z,92.06
2019-02-05T14:16:56.642Z,92.47
2019-02-05T14:20:06.347Z,92.41
2019-02-05T14:23:13.942Z,92.08
2019-02-05T14:26:22.090Z,91.74
2019-02-05T14:29:29.847Z,91.81
2019-02-05T14:32:37.425Z,92.15
2019-02-05T14:35:45.351Z,92.00
2019-02-05T14:38:53.079Z,92.14
2019-02-05T14:42:00.648Z,93.27
2019-02-05T14:45:10.338Z,92.42
2019-02-05T14:48:18.416Z,89.97
2019-02-05T14:51:26.401Z,91.01
2019-02-05T14:54:34.323Z,90.34
2019-02-05T14:57:45.702Z,90.95
2019-02-05T15:00:56.276Z,92.71
2019-02-05T15:04:04.303Z,93.73
2019-02-05T15:07:14.824Z,91.88
2019-02-05T15:10:22.517Z,91.37
2019-02-05T15:13:30.382Z,92.15
2019-02-05T15:16:37.996Z,93.10
2019-02-05T15:19:45.838Z,93.62
2019-02-05T15:22:54.231Z,95.63
2019-02-05T15:26:01.821Z,96.55
2019-02-05T15:29:09.746Z,98.29
2019-02-05T15:32:37.114Z,100.00
2019-02-05T15:35:54.734Z,100.00
2019-02-05T15:39:07.070Z,100.00
2019-02-05T15:42:14.867Z,100.00
2019-02-05T15:45:22.685Z,100.00
2019-02-05T15:48:30.320Z,100.00
2019-02-05T15:51:38.485Z,100.00
2019-02-05T15:54:45.903Z,100.00
2019-02-05T15:57:53.343Z,100.00
2019-02-05T16:01:00.933Z,100.00
2019-02-05T16:04:08.473Z,100.00
2019-02-05T16:07:16.143Z,100.00
2019-02-05T16:10:23.976Z,100.00
2019-02-05T16:13:31.751Z,100.00
2019-02-05T16:16:39.359Z,100.00
2019-02-05T16:19:46.985Z,100.00
2019-02-05T16:22:54.990Z,100.00
2019-02-05T16:26:02.685Z,100.00
2019-02-05T16:29:10.811Z,100.00
2019-02-05T16:32:18.343Z,100.00
2019-02-05T16:35:26.270Z,100.00
2019-02-05T16:38:34.064Z,100.00
2019-02-05T16:41:42.045Z,100.00
2019-02-05T16:44:49.553Z,100.00
2019-02-05T16:47:57.562Z,100.00
2019-02-05T16:51:05.853Z,100.00
2019-02-05T16:54:13.934Z,100.00
2019-02-05T16:57:21.784Z,100.00
2019-02-05T17:00:31.911Z,100.00
2019-02-05T17:03:42.909Z,100.00
2019-02-05T17:06:50.839Z,100.00
2019-02-05T17:09:59.646Z,100.00
2019-02-05T17:13:07.469Z,100.00
2019-02-05T17:16:15.112Z,100.00
2019-02-05T17:19:22.801Z,100.00
2019-02-05T17:22:30.714Z,100.00
2019-02-05T17:25:38.300Z,100.00
2019-02-05T17:28:45.876Z,100.00
2019-02-05T17:31:53.714Z,100.00
2019-02-05T17:35:01.101Z,100.00
2019-02-05T17:38:10.030Z,100.00
2019-02-05T17:41:17.985Z,100.00
2019-02-05T17:44:26.088Z,100.00
2019-02-05T17:47:34.045Z,100.00
2019-02-05T17:50:42.064Z,100.00
2019-02-05T17:53:50.627Z,100.00
2019-02-05T17:56:59.357Z,100.00
2019-02-05T18:00:12.730Z,100.00
2019-02-05T18:03:20.415Z,100.00
2019-02-05T18:06:28.867Z,100.00
2019-02-05T18:09:37.252Z,100.00
2019-02-05T18:12:46.132Z,100.00
2019-02-05T18:15:53.908Z,100.00
2019-02-05T18:19:02.365Z,100.00
2019-02-05T18:22:10.244Z,100.00
2019-02-05T18:25:19.076Z,100.00
2019-02-05T18:28:27.020Z,100.00
2019-02-05T18:31:35.529Z,100.00
2019-02-05T18:34:45.737Z,100.00
2019-02-05T18:37:56.843Z,100.00
2019-02-05T18:41:04.691Z,100.00
2019-02-05T18:44:12.994Z,100.00
2019-02-05T18:47:21.094Z,100.00
2019-02-05T18:50:28.860Z,100.00
2019-02-05T18:53:37.189Z,100.00
2019-02-05T18:56:44.958Z,100.00
2019-02-05T18:59:53.874Z,100.00
2019-02-05T19:03:01.674Z,100.00
2019-02-05T19:06:09.557Z,100.00
2019-02-05T19:09:17.341Z,100.00
2019-02-05T19:12:25.166Z,100.00
2019-02-05T19:15:34.750Z,100.00
2019-02-05T19:18:43.130Z,100.00
2019-02-05T19:21:50.580Z,100.00
2019-02-05T19:25:01.610Z,100.00
2019-02-05T19:28:13.810Z,100.00
2019-02-05T19:31:31.175Z,100.00
2019-02-05T19:34:38.981Z,100.00
2019-02-05T19:37:48.478Z,100.00
2019-02-05T19:40:58.275Z,100.00
2019-02-05T19:44:05.835Z,100.00
2019-02-05T19:47:25.128Z,100.00
2019-02-05T19:50:33.038Z,100.00
2019-02-05T19:53:40.800Z,100.00
2019-02-05T19:56:50.435Z,100.00
2019-02-05T19:59:58.382Z,100.00
2019-02-05T20:03:06.501Z,100.00
2019-02-05T20:06:14.701Z,100.00
2019-02-05T20:09:22.443Z,100.00
2019-02-05T20:12:31.094Z,100.00
2019-02-05T20:15:39.090Z,100.00
2019-02-05T20:18:46.798Z,100.00
2019-02-05T20:21:54.832Z,100.00
2019-02-05T20:25:03.641Z,100.00
2019-02-05T20:28:11.445Z,100.00
2019-02-05T20:31:18.780Z,100.00
2019-02-05T20:34:26.771Z,100.00
2019-02-05T20:37:35.052Z,100.00
2019-02-05T20:40:43.389Z,100.00
2019-02-05T20:43:51.227Z,100.00
2019-02-05T20:46:59.484Z,100.00
2019-02-05T20:50:14.296Z,100.00
2019-02-05T20:53:34.250Z,100.00
2019-02-05T20:56:48.609Z,100.00
2019-02-05T20:59:56.886Z,100.00
2019-02-05T21:03:05.823Z,100.00
2019-02-05T21:06:13.845Z,100.00
2019-02-05T21:09:21.654Z,100.00
2019-02-05T21:12:29.201Z,100.00
2019-02-05T21:15:37.099Z,100.00
2019-02-05T21:18:44.575Z,100.00
2019-02-05T21:21:52.355Z,100.00
2019-02-05T21:25:00.602Z,100.00
2019-02-05T21:28:08.566Z,100.00
2019-02-05T21:31:16.774Z,100.00
2019-02-05T21:34:24.439Z,100.00
2019-02-05T21:37:32.300Z,100.00
2019-02-05T21:40:39.830Z,100.00
2019-02-05T21:43:50.055Z,100.00
2019-02-05T21:47:00.719Z,100.00
2019-02-05T21:50:11.601Z,100.00
2019-02-05T21:53:21.029Z,100.00
2019-02-05T21:56:34.789Z,100.00
2019-02-05T21:59:42.703Z,100.00
2019-02-05T22:02:50.514Z,100.00
2019-02-05T22:05:58.259Z,100.00
2019-02-05T22:09:10.275Z,100.00
2019-02-05T22:12:19.069Z,100.00
2019-02-05T22:15:29.554Z,100.00
2019-02-05T22:18:37.009Z,100.00
2019-02-05T22:21:45.316Z,100.00
2019-02-05T22:24:52.980Z,100.00
2019-02-05T22:28:01.318Z,100.00
2019-02-05T22:31:09.274Z,100.00
2019-02-05T22:34:17.129Z,100.00
2019-02-05T22:37:24.911Z,100.00
2019-02-05T22:40:32.606Z,100.00
2019-02-05T22:43:40.705Z,100.00
2019-02-05T22:46:48.642Z,100.00
2019-02-05T22:49:57.690Z,100.00
2019-02-05T22:53:06.840Z,100.00
2019-02-05T22:56:14.872Z,100.00
2019-02-05T22:59:22.722Z,100.00
2019-02-05T23:02:30.515Z,100.00
2019-02-05T23:06:41.867Z,100.00
2019-02-05T23:10:29.310Z,100.00
2019-02-05T23:13:37.633Z,100.00
2019-02-05T23:16:45.683Z,100.00
2019-02-05T23:19:53.771Z,100.00
2019-02-05T23:23:04.464Z,100.00
2019-02-05T23:26:12.344Z,100.00
2019-02-05T23:29:20.159Z,100.00
2019-02-05T23:32:27.653Z,100.00
2019-02-05T23:35:35.350Z,100.00
2019-02-05T23:38:45.119Z,100.00
2019-02-05T23:41:53.459Z,100.00
2019-02-05T23:45:01.483Z,100.00
2019-02-05T23:48:09.173Z,100.00
2019-02-05T23:51:16.956Z,100.00
2019-02-05T23:54:24.895Z,100.00
2019-02-05T23:57:32.818Z,100.00
